サンクトペテルブルク の空港の天気 - METARとTAF

プルコヴォ空港(サンクトペテルブルグ) ( ULLI / LED ) - ロシア サンクトペテルブルク
飛行場実況気象(Metar)
観測時間09/25 02:30 MSK (09/24 23:30 UTC)
風向・風速南東 3m/s
視程10km以上
天気現象
全天の8割程度の雲 雲底高度 240m
全天を覆う雲 雲底高度 610m
気温8℃
湿度81%
気圧999hPa
METARULLI 242330Z 13003MPS 100V170 9999 BKN008 OVC020 08/05 Q0999 R10R/090060 NOSIG
過去の天気等 Google飛行場航空写真 Wunderground天気予報

過去48時間のMETAR

飛行場予報(TAF)
発表時間: 9/25 01:53 MSK (9/24 22:53 UTC)
予報対象時間: 25日3時 MSK ~ 26日3時 MSK
風向・風速南南東 3m/s
視程10km以上
全天の8割程度の雲 雲底高度 300m
全天を覆う雲 雲底高度 490m
25日3時 MSK ~ 25日23時 MSK に一時的に
視程6000m
天気現象弱い雨
全天の8割程度の雲 雲底高度 490m
25日14時 MSK ~ 25日15時 MSK に徐々に
風向・風速南西 3m/s
25日20時 MSK ~ 25日21時 MSK に徐々に
風向・風速西 3m/s
TAF ULLI 242253Z 2500/2524 16003MPS 9999 BKN010 OVC016
TEMPO 2500/2520 6000 -RA BKN016
BECMG 2511/2512 23003MPS
BECMG 2517/2518 27003MPS